sensor_id;sensor_type;location;lat;lon;timestamp;P1;durP1;ratioP1;P2;durP2;ratioP2
19189;SDS011;9727;50.200;19.038;2022-08-11T00:00:19;9.73;;;3.53;;
19189;SDS011;9727;50.200;19.038;2022-08-11T00:02:47;14.60;;;3.70;;
19189;SDS011;9727;50.200;19.038;2022-08-11T00:05:16;9.63;;;4.10;;
19189;SDS011;9727;50.200;19.038;2022-08-11T00:07:44;10.33;;;4.50;;
19189;SDS011;9727;50.200;19.038;2022-08-11T00:10:11;9.77;;;3.50;;
19189;SDS011;9727;50.200;19.038;2022-08-11T00:12:39;5.83;;;3.87;;
19189;SDS011;9727;50.200;19.038;2022-08-11T00:15:08;9.17;;;4.17;;
19189;SDS011;9727;50.200;19.038;2022-08-11T00:17:35;8.63;;;3.80;;
19189;SDS011;9727;50.200;19.038;2022-08-11T00:20:04;7.87;;;4.40;;
19189;SDS011;9727;50.200;19.038;2022-08-11T00:22:31;8.90;;;3.70;;
19189;SDS011;9727;50.200;19.038;2022-08-11T00:24:58;7.30;;;4.23;;
19189;SDS011;9727;50.200;19.038;2022-08-11T00:27:32;6.83;;;3.77;;
19189;SDS011;9727;50.200;19.038;2022-08-11T00:29:59;7.80;;;4.53;;
19189;SDS011;9727;50.200;19.038;2022-08-11T00:32:27;8.83;;;3.90;;
19189;SDS011;9727;50.200;19.038;2022-08-11T00:34:54;7.77;;;4.37;;
19189;SDS011;9727;50.200;19.038;2022-08-11T00:37:20;9.20;;;4.03;;
19189;SDS011;9727;50.200;19.038;2022-08-11T00:39:49;6.77;;;4.03;;
19189;SDS011;9727;50.200;19.038;2022-08-11T00:42:18;7.03;;;3.70;;
19189;SDS011;9727;50.200;19.038;2022-08-11T00:44:53;6.93;;;4.13;;
19189;SDS011;9727;50.200;19.038;2022-08-11T00:47:26;9.00;;;3.80;;
19189;SDS011;9727;50.200;19.038;2022-08-11T00:50:06;7.77;;;3.70;;
19189;SDS011;9727;50.200;19.038;2022-08-11T00:52:53;8.57;;;3.63;;
19189;SDS011;9727;50.200;19.038;2022-08-11T00:55:30;10.17;;;3.80;;
19189;SDS011;9727;50.200;19.038;2022-08-11T01:00:50;11.80;;;3.80;;
19189;SDS011;9727;50.200;19.038;2022-08-11T01:03:24;7.20;;;3.80;;
19189;SDS011;9727;50.200;19.038;2022-08-11T01:06:17;7.47;;;3.97;;
19189;SDS011;9727;50.200;19.038;2022-08-11T01:09:00;8.00;;;3.83;;
19189;SDS011;9727;50.200;19.038;2022-08-11T01:11:58;11.90;;;4.17;;
19189;SDS011;9727;50.200;19.038;2022-08-11T01:14:51;7.30;;;4.00;;
19189;SDS011;9727;50.200;19.038;2022-08-11T01:20:21;9.20;;;3.93;;
19189;SDS011;9727;50.200;19.038;2022-08-11T01:25:44;5.80;;;4.00;;
19189;SDS011;9727;50.200;19.038;2022-08-11T01:36:56;6.77;;;3.90;;
19189;SDS011;9727;50.200;19.038;2022-08-11T01:39:50;10.40;;;4.23;;
19189;SDS011;9727;50.200;19.038;2022-08-11T01:45:25;6.27;;;3.97;;
19189;SDS011;9727;50.200;19.038;2022-08-11T01:47:57;6.43;;;3.60;;
19189;SDS011;9727;50.200;19.038;2022-08-11T01:50:45;7.03;;;3.80;;
19189;SDS011;9727;50.200;19.038;2022-08-11T01:53:20;6.17;;;3.90;;
19189;SDS011;9727;50.200;19.038;2022-08-11T01:55:51;7.07;;;4.47;;
19189;SDS011;9727;50.200;19.038;2022-08-11T01:58:22;7.13;;;4.40;;
19189;SDS011;9727;50.200;19.038;2022-08-11T02:00:53;6.50;;;4.03;;
19189;SDS011;9727;50.200;19.038;2022-08-11T02:03:23;8.70;;;4.43;;
19189;SDS011;9727;50.200;19.038;2022-08-11T02:05:54;8.27;;;4.27;;
19189;SDS011;9727;50.200;19.038;2022-08-11T02:08:30;9.10;;;4.57;;
19189;SDS011;9727;50.200;19.038;2022-08-11T02:11:02;12.27;;;5.13;;
19189;SDS011;9727;50.200;19.038;2022-08-11T02:13:48;9.20;;;4.30;;
19189;SDS011;9727;50.200;19.038;2022-08-11T02:16:20;8.23;;;4.00;;
19189;SDS011;9727;50.200;19.038;2022-08-11T02:18:48;6.57;;;4.20;;
19189;SDS011;9727;50.200;19.038;2022-08-11T02:21:37;9.17;;;4.43;;
19189;SDS011;9727;50.200;19.038;2022-08-11T02:24:25;6.60;;;4.40;;
19189;SDS011;9727;50.200;19.038;2022-08-11T02:26:55;7.17;;;4.20;;
19189;SDS011;9727;50.200;19.038;2022-08-11T02:29:27;8.07;;;4.43;;
19189;SDS011;9727;50.200;19.038;2022-08-11T02:31:57;10.23;;;4.23;;
19189;SDS011;9727;50.200;19.038;2022-08-11T02:34:50;9.00;;;4.20;;
19189;SDS011;9727;50.200;19.038;2022-08-11T02:37:21;11.50;;;4.33;;
19189;SDS011;9727;50.200;19.038;2022-08-11T02:40:05;7.83;;;4.07;;
19189;SDS011;9727;50.200;19.038;2022-08-11T02:42:37;8.30;;;4.00;;
19189;SDS011;9727;50.200;19.038;2022-08-11T02:45:10;7.97;;;4.00;;
19189;SDS011;9727;50.200;19.038;2022-08-11T02:47:41;7.23;;;4.00;;
19189;SDS011;9727;50.200;19.038;2022-08-11T02:50:34;7.97;;;4.57;;
19189;SDS011;9727;50.200;19.038;2022-08-11T02:53:02;9.60;;;4.30;;
19189;SDS011;9727;50.200;19.038;2022-08-11T02:55:34;7.43;;;4.17;;
19189;SDS011;9727;50.200;19.038;2022-08-11T02:58:02;9.67;;;4.00;;
19189;SDS011;9727;50.200;19.038;2022-08-11T03:00:41;6.13;;;4.10;;
19189;SDS011;9727;50.200;19.038;2022-08-11T03:03:12;10.73;;;4.53;;
19189;SDS011;9727;50.200;19.038;2022-08-11T03:05:44;8.27;;;4.57;;
19189;SDS011;9727;50.200;19.038;2022-08-11T03:08:16;8.77;;;4.00;;
19189;SDS011;9727;50.200;19.038;2022-08-11T03:10:50;12.97;;;4.27;;
19189;SDS011;9727;50.200;19.038;2022-08-11T03:13:33;8.20;;;4.57;;
19189;SDS011;9727;50.200;19.038;2022-08-11T03:16:20;10.00;;;4.80;;
19189;SDS011;9727;50.200;19.038;2022-08-11T03:19:07;10.13;;;5.17;;
19189;SDS011;9727;50.200;19.038;2022-08-11T03:21:37;9.77;;;5.13;;
19189;SDS011;9727;50.200;19.038;2022-08-11T03:24:07;9.93;;;5.20;;
19189;SDS011;9727;50.200;19.038;2022-08-11T03:26:42;10.60;;;5.07;;
19189;SDS011;9727;50.200;19.038;2022-08-11T03:29:14;10.13;;;5.10;;
19189;SDS011;9727;50.200;19.038;2022-08-11T03:31:45;11.00;;;5.57;;
19189;SDS011;9727;50.200;19.038;2022-08-11T03:34:15;9.73;;;5.40;;
19189;SDS011;9727;50.200;19.038;2022-08-11T03:36:51;12.90;;;5.60;;
19189;SDS011;9727;50.200;19.038;2022-08-11T03:39:19;11.67;;;5.50;;
19189;SDS011;9727;50.200;19.038;2022-08-11T03:41:51;12.50;;;5.57;;
19189;SDS011;9727;50.200;19.038;2022-08-11T03:44:26;8.00;;;5.07;;
19189;SDS011;9727;50.200;19.038;2022-08-11T03:49:35;6.87;;;4.50;;
19189;SDS011;9727;50.200;19.038;2022-08-11T03:52:08;8.53;;;4.90;;
19189;SDS011;9727;50.200;19.038;2022-08-11T03:54:41;9.20;;;4.90;;
19189;SDS011;9727;50.200;19.038;2022-08-11T03:57:25;9.00;;;4.70;;
19189;SDS011;9727;50.200;19.038;2022-08-11T04:02:51;7.23;;;4.60;;
19189;SDS011;9727;50.200;19.038;2022-08-11T04:08:29;7.20;;;4.43;;
19189;SDS011;9727;50.200;19.038;2022-08-11T04:11:10;10.67;;;4.63;;
19189;SDS011;9727;50.200;19.038;2022-08-11T04:13:55;10.03;;;5.07;;
19189;SDS011;9727;50.200;19.038;2022-08-11T04:16:51;8.47;;;4.67;;
19189;SDS011;9727;50.200;19.038;2022-08-11T04:22:11;10.60;;;5.07;;
19189;SDS011;9727;50.200;19.038;2022-08-11T04:24:48;8.57;;;4.23;;
19189;SDS011;9727;50.200;19.038;2022-08-11T04:27:26;9.30;;;5.07;;
19189;SDS011;9727;50.200;19.038;2022-08-11T04:30:00;7.37;;;4.67;;
19189;SDS011;9727;50.200;19.038;2022-08-11T04:35:21;8.87;;;4.90;;
19189;SDS011;9727;50.200;19.038;2022-08-11T04:38:04;7.87;;;4.43;;
19189;SDS011;9727;50.200;19.038;2022-08-11T04:40:47;12.17;;;5.20;;
19189;SDS011;9727;50.200;19.038;2022-08-11T04:46:13;12.17;;;5.20;;
19189;SDS011;9727;50.200;19.038;2022-08-11T04:48:47;8.13;;;5.00;;
19189;SDS011;9727;50.200;19.038;2022-08-11T04:51:43;8.50;;;5.17;;
19189;SDS011;9727;50.200;19.038;2022-08-11T04:54:38;11.50;;;4.90;;
19189;SDS011;9727;50.200;19.038;2022-08-11T04:57:27;9.30;;;4.60;;
19189;SDS011;9727;50.200;19.038;2022-08-11T05:00:15;8.63;;;4.77;;
19189;SDS011;9727;50.200;19.038;2022-08-11T05:03:12;7.53;;;4.63;;
19189;SDS011;9727;50.200;19.038;2022-08-11T05:05:45;9.47;;;4.60;;
19189;SDS011;9727;50.200;19.038;2022-08-11T05:11:25;9.73;;;5.53;;
19189;SDS011;9727;50.200;19.038;2022-08-11T05:14:01;8.33;;;4.60;;
19189;SDS011;9727;50.200;19.038;2022-08-11T05:16:51;8.63;;;4.90;;
19189;SDS011;9727;50.200;19.038;2022-08-11T05:19:46;12.20;;;5.33;;
19189;SDS011;9727;50.200;19.038;2022-08-11T05:22:30;11.83;;;5.43;;
19189;SDS011;9727;50.200;19.038;2022-08-11T05:25:16;9.23;;;5.10;;
19189;SDS011;9727;50.200;19.038;2022-08-11T05:28:02;7.47;;;4.57;;
19189;SDS011;9727;50.200;19.038;2022-08-11T05:30:48;8.73;;;4.87;;
19189;SDS011;9727;50.200;19.038;2022-08-11T05:33:33;7.00;;;4.20;;
19189;SDS011;9727;50.200;19.038;2022-08-11T05:36:22;10.93;;;5.17;;
19189;SDS011;9727;50.200;19.038;2022-08-11T05:38:52;7.67;;;4.63;;
19189;SDS011;9727;50.200;19.038;2022-08-11T05:41:37;6.50;;;4.20;;
19189;SDS011;9727;50.200;19.038;2022-08-11T05:44:22;10.53;;;5.10;;
19189;SDS011;9727;50.200;19.038;2022-08-11T05:47:07;8.90;;;4.63;;
19189;SDS011;9727;50.200;19.038;2022-08-11T05:49:51;6.50;;;4.50;;
19189;SDS011;9727;50.200;19.038;2022-08-11T05:52:37;10.20;;;4.63;;
19189;SDS011;9727;50.200;19.038;2022-08-11T05:55:21;10.13;;;4.50;;
19189;SDS011;9727;50.200;19.038;2022-08-11T05:58:06;9.87;;;4.33;;
19189;SDS011;9727;50.200;19.038;2022-08-11T06:00:40;7.33;;;4.43;;
19189;SDS011;9727;50.200;19.038;2022-08-11T06:03:06;9.03;;;5.20;;
19189;SDS011;9727;50.200;19.038;2022-08-11T06:05:35;7.83;;;4.13;;
19189;SDS011;9727;50.200;19.038;2022-08-11T06:08:03;9.00;;;4.80;;
19189;SDS011;9727;50.200;19.038;2022-08-11T06:10:31;8.07;;;4.90;;
19189;SDS011;9727;50.200;19.038;2022-08-11T06:12:58;15.13;;;5.30;;
19189;SDS011;9727;50.200;19.038;2022-08-11T06:15:26;9.30;;;4.83;;
19189;SDS011;9727;50.200;19.038;2022-08-11T06:17:54;8.97;;;4.53;;
19189;SDS011;9727;50.200;19.038;2022-08-11T06:20:20;8.30;;;4.40;;
19189;SDS011;9727;50.200;19.038;2022-08-11T06:22:54;9.03;;;4.40;;
19189;SDS011;9727;50.200;19.038;2022-08-11T06:25:23;10.30;;;4.87;;
19189;SDS011;9727;50.200;19.038;2022-08-11T06:27:55;7.20;;;4.87;;
19189;SDS011;9727;50.200;19.038;2022-08-11T06:30:28;7.77;;;4.70;;
19189;SDS011;9727;50.200;19.038;2022-08-11T06:32:58;13.40;;;5.03;;
19189;SDS011;9727;50.200;19.038;2022-08-11T06:35:28;8.82;;;4.75;;
19189;SDS011;9727;50.200;19.038;2022-08-11T06:38:04;9.57;;;4.68;;
19189;SDS011;9727;50.200;19.038;2022-08-11T06:40:35;11.48;;;4.90;;
19189;SDS011;9727;50.200;19.038;2022-08-11T06:43:06;9.67;;;4.80;;
19189;SDS011;9727;50.200;19.038;2022-08-11T06:45:36;13.23;;;5.22;;
19189;SDS011;9727;50.200;19.038;2022-08-11T06:48:05;7.03;;;4.15;;
19189;SDS011;9727;50.200;19.038;2022-08-11T06:50:35;8.18;;;4.50;;
19189;SDS011;9727;50.200;19.038;2022-08-11T06:53:19;9.18;;;4.40;;
19189;SDS011;9727;50.200;19.038;2022-08-11T06:55:48;12.35;;;4.10;;
19189;SDS011;9727;50.200;19.038;2022-08-11T06:58:33;5.57;;;3.88;;
19189;SDS011;9727;50.200;19.038;2022-08-11T07:01:21;10.02;;;3.60;;
19189;SDS011;9727;50.200;19.038;2022-08-11T07:03:51;8.93;;;3.63;;
19189;SDS011;9727;50.200;19.038;2022-08-11T07:06:27;5.20;;;3.30;;
19189;SDS011;9727;50.200;19.038;2022-08-11T07:09:05;7.43;;;3.00;;
19189;SDS011;9727;50.200;19.038;2022-08-11T07:12:00;8.10;;;3.45;;
19189;SDS011;9727;50.200;19.038;2022-08-11T07:14:48;6.65;;;2.92;;
19189;SDS011;9727;50.200;19.038;2022-08-11T07:17:33;6.90;;;3.47;;
19189;SDS011;9727;50.200;19.038;2022-08-11T07:20:03;7.55;;;3.38;;
19189;SDS011;9727;50.200;19.038;2022-08-11T07:22:50;7.50;;;3.63;;
19189;SDS011;9727;50.200;19.038;2022-08-11T07:25:37;13.10;;;3.83;;
19189;SDS011;9727;50.200;19.038;2022-08-11T07:28:24;7.60;;;3.25;;
19189;SDS011;9727;50.200;19.038;2022-08-11T07:31:10;10.07;;;3.63;;
19189;SDS011;9727;50.200;19.038;2022-08-11T07:33:39;8.73;;;3.55;;
19189;SDS011;9727;50.200;19.038;2022-08-11T07:36:06;5.75;;;3.25;;
19189;SDS011;9727;50.200;19.038;2022-08-11T07:38:37;6.70;;;3.58;;
19189;SDS011;9727;50.200;19.038;2022-08-11T07:41:08;7.15;;;3.47;;
19189;SDS011;9727;50.200;19.038;2022-08-11T07:43:36;8.02;;;3.50;;
19189;SDS011;9727;50.200;19.038;2022-08-11T07:46:04;5.28;;;3.20;;
19189;SDS011;9727;50.200;19.038;2022-08-11T07:48:48;10.25;;;3.75;;
19189;SDS011;9727;50.200;19.038;2022-08-11T07:51:32;6.03;;;3.25;;
19189;SDS011;9727;50.200;19.038;2022-08-11T07:54:16;6.60;;;3.00;;
19189;SDS011;9727;50.200;19.038;2022-08-11T07:56:43;3.90;;;2.70;;
19189;SDS011;9727;50.200;19.038;2022-08-11T07:59:11;8.13;;;2.75;;
19189;SDS011;9727;50.200;19.038;2022-08-11T08:01:55;8.20;;;2.75;;
19189;SDS011;9727;50.200;19.038;2022-08-11T08:04:40;6.72;;;2.70;;
19189;SDS011;9727;50.200;19.038;2022-08-11T08:07:24;5.30;;;3.17;;
19189;SDS011;9727;50.200;19.038;2022-08-11T08:10:09;6.30;;;2.70;;
19189;SDS011;9727;50.200;19.038;2022-08-11T08:12:53;5.90;;;2.53;;
19189;SDS011;9727;50.200;19.038;2022-08-11T08:15:39;6.95;;;3.22;;
19189;SDS011;9727;50.200;19.038;2022-08-11T08:18:24;4.47;;;2.53;;
19189;SDS011;9727;50.200;19.038;2022-08-11T08:20:51;5.25;;;2.90;;
19189;SDS011;9727;50.200;19.038;2022-08-11T08:23:19;5.35;;;2.42;;
19189;SDS011;9727;50.200;19.038;2022-08-11T08:25:57;10.10;;;2.72;;
19189;SDS011;9727;50.200;19.038;2022-08-11T08:28:25;8.65;;;2.45;;
19189;SDS011;9727;50.200;19.038;2022-08-11T08:30:54;6.22;;;2.67;;
19189;SDS011;9727;50.200;19.038;2022-08-11T08:33:20;4.60;;;2.10;;
19189;SDS011;9727;50.200;19.038;2022-08-11T08:35:47;3.53;;;2.55;;
19189;SDS011;9727;50.200;19.038;2022-08-11T08:38:14;4.22;;;2.67;;
19189;SDS011;9727;50.200;19.038;2022-08-11T08:40:41;3.42;;;2.40;;
19189;SDS011;9727;50.200;19.038;2022-08-11T08:43:09;4.20;;;2.22;;
19189;SDS011;9727;50.200;19.038;2022-08-11T08:45:39;2.72;;;2.10;;
19189;SDS011;9727;50.200;19.038;2022-08-11T08:48:09;7.32;;;2.25;;
19189;SDS011;9727;50.200;19.038;2022-08-11T08:50:42;2.28;;;1.83;;
19189;SDS011;9727;50.200;19.038;2022-08-11T08:53:27;18.35;;;2.10;;
19189;SDS011;9727;50.200;19.038;2022-08-11T08:55:56;3.05;;;1.60;;
19189;SDS011;9727;50.200;19.038;2022-08-11T08:58:23;8.23;;;1.92;;
19189;SDS011;9727;50.200;19.038;2022-08-11T09:00:51;2.13;;;1.90;;
19189;SDS011;9727;50.200;19.038;2022-08-11T09:03:20;2.63;;;1.60;;
19189;SDS011;9727;50.200;19.038;2022-08-11T09:05:47;3.13;;;1.65;;
19189;SDS011;9727;50.200;19.038;2022-08-11T09:08:15;2.90;;;1.90;;
19189;SDS011;9727;50.200;19.038;2022-08-11T09:10:42;4.53;;;1.77;;
19189;SDS011;9727;50.200;19.038;2022-08-11T09:13:10;5.30;;;2.15;;
19189;SDS011;9727;50.200;19.038;2022-08-11T09:15:37;2.85;;;1.70;;
19189;SDS011;9727;50.200;19.038;2022-08-11T09:18:04;3.70;;;2.00;;
19189;SDS011;9727;50.200;19.038;2022-08-11T09:20:35;3.85;;;1.83;;
19189;SDS011;9727;50.200;19.038;2022-08-11T09:23:03;3.65;;;2.10;;
19189;SDS011;9727;50.200;19.038;2022-08-11T09:25:48;3.83;;;2.22;;
19189;SDS011;9727;50.200;19.038;2022-08-11T09:28:32;5.40;;;2.03;;
19189;SDS011;9727;50.200;19.038;2022-08-11T09:31:00;9.80;;;2.95;;
19189;SDS011;9727;50.200;19.038;2022-08-11T09:33:27;3.78;;;2.28;;
19189;SDS011;9727;50.200;19.038;2022-08-11T09:35:55;6.75;;;2.30;;
19189;SDS011;9727;50.200;19.038;2022-08-11T09:38:23;3.05;;;2.15;;
19189;SDS011;9727;50.200;19.038;2022-08-11T09:41:09;3.70;;;2.30;;
19189;SDS011;9727;50.200;19.038;2022-08-11T09:43:38;6.25;;;2.20;;
19189;SDS011;9727;50.200;19.038;2022-08-11T09:46:22;4.93;;;2.10;;
19189;SDS011;9727;50.200;19.038;2022-08-11T09:48:50;6.15;;;2.15;;
19189;SDS011;9727;50.200;19.038;2022-08-11T09:51:20;6.93;;;2.20;;
19189;SDS011;9727;50.200;19.038;2022-08-11T09:53:46;5.47;;;1.95;;
19189;SDS011;9727;50.200;19.038;2022-08-11T09:56:14;5.03;;;2.10;;
19189;SDS011;9727;50.200;19.038;2022-08-11T09:59:00;7.50;;;2.10;;
19189;SDS011;9727;50.200;19.038;2022-08-11T10:01:29;7.20;;;2.58;;
19189;SDS011;9727;50.200;19.038;2022-08-11T10:03:57;7.60;;;2.50;;
19189;SDS011;9727;50.200;19.038;2022-08-11T10:06:27;9.68;;;2.30;;
19189;SDS011;9727;50.200;19.038;2022-08-11T10:09:12;5.90;;;2.55;;
19189;SDS011;9727;50.200;19.038;2022-08-11T10:11:40;4.78;;;2.45;;
19189;SDS011;9727;50.200;19.038;2022-08-11T10:14:07;2.70;;;2.00;;
19189;SDS011;9727;50.200;19.038;2022-08-11T10:16:52;5.35;;;2.10;;
19189;SDS011;9727;50.200;19.038;2022-08-11T10:19:18;2.78;;;1.77;;
19189;SDS011;9727;50.200;19.038;2022-08-11T10:21:49;4.13;;;1.77;;
19189;SDS011;9727;50.200;19.038;2022-08-11T10:24:37;6.85;;;2.10;;
19189;SDS011;9727;50.200;19.038;2022-08-11T10:27:21;4.80;;;2.33;;
19189;SDS011;9727;50.200;19.038;2022-08-11T10:29:48;2.90;;;1.88;;
19189;SDS011;9727;50.200;19.038;2022-08-11T10:32:32;4.57;;;1.90;;
19189;SDS011;9727;50.200;19.038;2022-08-11T10:35:17;7.25;;;1.52;;
19189;SDS011;9727;50.200;19.038;2022-08-11T10:37:47;5.03;;;2.20;;
19189;SDS011;9727;50.200;19.038;2022-08-11T10:40:14;4.10;;;2.28;;
19189;SDS011;9727;50.200;19.038;2022-08-11T10:42:41;5.43;;;2.45;;
19189;SDS011;9727;50.200;19.038;2022-08-11T10:45:25;4.82;;;2.58;;
19189;SDS011;9727;50.200;19.038;2022-08-11T10:48:11;10.02;;;2.67;;
19189;SDS011;9727;50.200;19.038;2022-08-11T10:50:37;4.97;;;2.42;;
19189;SDS011;9727;50.200;19.038;2022-08-11T10:53:23;3.55;;;1.80;;
19189;SDS011;9727;50.200;19.038;2022-08-11T10:56:07;6.00;;;2.50;;
19189;SDS011;9727;50.200;19.038;2022-08-11T10:58:52;6.38;;;2.03;;
19189;SDS011;9727;50.200;19.038;2022-08-11T11:01:21;3.20;;;1.90;;
19189;SDS011;9727;50.200;19.038;2022-08-11T11:03:48;3.50;;;2.17;;
19189;SDS011;9727;50.200;19.038;2022-08-11T11:06:20;8.70;;;1.90;;
19189;SDS011;9727;50.200;19.038;2022-08-11T11:08:52;6.93;;;2.00;;
19189;SDS011;9727;50.200;19.038;2022-08-11T11:11:21;7.57;;;1.98;;
19189;SDS011;9727;50.200;19.038;2022-08-11T11:14:08;6.03;;;2.22;;
19189;SDS011;9727;50.200;19.038;2022-08-11T11:16:52;9.63;;;1.80;;
19189;SDS011;9727;50.200;19.038;2022-08-11T11:19:38;2.95;;;1.58;;
19189;SDS011;9727;50.200;19.038;2022-08-11T11:22:05;4.70;;;1.95;;
19189;SDS011;9727;50.200;19.038;2022-08-11T11:24:51;2.67;;;1.40;;
19189;SDS011;9727;50.200;19.038;2022-08-11T11:27:24;5.65;;;2.38;;
19189;SDS011;9727;50.200;19.038;2022-08-11T11:29:55;5.22;;;1.77;;
19189;SDS011;9727;50.200;19.038;2022-08-11T11:32:23;3.42;;;1.70;;
19189;SDS011;9727;50.200;19.038;2022-08-11T11:37:39;3.42;;;2.00;;
19189;SDS011;9727;50.200;19.038;2022-08-11T11:40:09;4.75;;;2.10;;
19189;SDS011;9727;50.200;19.038;2022-08-11T11:45:39;4.72;;;1.92;;
19189;SDS011;9727;50.200;19.038;2022-08-11T11:51:09;6.93;;;1.70;;
19189;SDS011;9727;50.200;19.038;2022-08-11T11:56:42;5.88;;;1.50;;
19189;SDS011;9727;50.200;19.038;2022-08-11T12:02:12;8.10;;;1.50;;
19189;SDS011;9727;50.200;19.038;2022-08-11T12:07:42;4.20;;;1.50;;
19189;SDS011;9727;50.200;19.038;2022-08-11T12:13:31;3.72;;;1.38;;
19189;SDS011;9727;50.200;19.038;2022-08-11T12:16:07;6.75;;;1.38;;
19189;SDS011;9727;50.200;19.038;2022-08-11T12:18:34;3.53;;;1.88;;
19189;SDS011;9727;50.200;19.038;2022-08-11T12:21:03;6.57;;;1.60;;
19189;SDS011;9727;50.200;19.038;2022-08-11T12:23:31;2.63;;;1.20;;
19189;SDS011;9727;50.200;19.038;2022-08-11T12:26:16;2.25;;;1.20;;
19189;SDS011;9727;50.200;19.038;2022-08-11T12:29:02;3.80;;;1.23;;
19189;SDS011;9727;50.200;19.038;2022-08-11T12:31:29;1.52;;;0.88;;
19189;SDS011;9727;50.200;19.038;2022-08-11T12:34:00;10.20;;;1.45;;
19189;SDS011;9727;50.200;19.038;2022-08-11T12:36:27;2.17;;;1.08;;
19189;SDS011;9727;50.200;19.038;2022-08-11T12:38:55;3.28;;;1.15;;
19189;SDS011;9727;50.200;19.038;2022-08-11T12:41:25;2.90;;;1.42;;
19189;SDS011;9727;50.200;19.038;2022-08-11T12:44:11;1.73;;;1.20;;
19189;SDS011;9727;50.200;19.038;2022-08-11T12:47:00;3.30;;;1.00;;
19189;SDS011;9727;50.200;19.038;2022-08-11T12:49:28;1.40;;;1.08;;
19189;SDS011;9727;50.200;19.038;2022-08-11T12:52:16;3.63;;;1.55;;
19189;SDS011;9727;50.200;19.038;2022-08-11T12:54:52;6.80;;;1.58;;
19189;SDS011;9727;50.200;19.038;2022-08-11T12:57:24;5.28;;;1.30;;
19189;SDS011;9727;50.200;19.038;2022-08-11T13:00:10;1.67;;;1.00;;
19189;SDS011;9727;50.200;19.038;2022-08-11T13:02:55;1.70;;;1.00;;
19189;SDS011;9727;50.200;19.038;2022-08-11T13:05:39;5.90;;;1.20;;
19189;SDS011;9727;50.200;19.038;2022-08-11T13:08:06;2.22;;;1.30;;
19189;SDS011;9727;50.200;19.038;2022-08-11T13:10:33;1.77;;;1.10;;
19189;SDS011;9727;50.200;19.038;2022-08-11T13:13:17;3.88;;;1.10;;
19189;SDS011;9727;50.200;19.038;2022-08-11T13:15:46;2.10;;;1.00;;
19189;SDS011;9727;50.200;19.038;2022-08-11T13:18:14;6.35;;;1.20;;
19189;SDS011;9727;50.200;19.038;2022-08-11T13:20:41;2.95;;;1.33;;
19189;SDS011;9727;50.200;19.038;2022-08-11T13:23:08;7.72;;;1.48;;
19189;SDS011;9727;50.200;19.038;2022-08-11T13:25:37;6.10;;;1.48;;
19189;SDS011;9727;50.200;19.038;2022-08-11T13:28:04;3.08;;;1.20;;
19189;SDS011;9727;50.200;19.038;2022-08-11T13:30:32;2.55;;;0.88;;
19189;SDS011;9727;50.200;19.038;2022-08-11T13:33:17;7.18;;;1.27;;
19189;SDS011;9727;50.200;19.038;2022-08-11T13:35:44;3.10;;;1.60;;
19189;SDS011;9727;50.200;19.038;2022-08-11T13:38:13;3.03;;;0.80;;
19189;SDS011;9727;50.200;19.038;2022-08-11T13:40:41;7.78;;;1.30;;
19189;SDS011;9727;50.200;19.038;2022-08-11T13:43:08;4.60;;;0.93;;
19189;SDS011;9727;50.200;19.038;2022-08-11T13:45:35;2.25;;;0.70;;
19189;SDS011;9727;50.200;19.038;2022-08-11T13:48:05;1.23;;;0.80;;
19189;SDS011;9727;50.200;19.038;2022-08-11T13:50:33;2.03;;;0.85;;
19189;SDS011;9727;50.200;19.038;2022-08-11T13:53:14;18.00;;;1.58;;
19189;SDS011;9727;50.200;19.038;2022-08-11T13:55:40;3.50;;;1.00;;
19189;SDS011;9727;50.200;19.038;2022-08-11T14:01:10;15.13;;;1.60;;
19189;SDS011;9727;50.200;19.038;2022-08-11T14:03:37;41.78;;;2.92;;
19189;SDS011;9727;50.200;19.038;2022-08-11T14:06:07;14.32;;;1.90;;
19189;SDS011;9727;50.200;19.038;2022-08-11T14:08:35;13.43;;;1.55;;
19189;SDS011;9727;50.200;19.038;2022-08-11T14:11:04;6.28;;;1.40;;
19189;SDS011;9727;50.200;19.038;2022-08-11T14:13:49;4.20;;;1.20;;
19189;SDS011;9727;50.200;19.038;2022-08-11T14:16:18;6.30;;;1.20;;
19189;SDS011;9727;50.200;19.038;2022-08-11T14:18:46;4.35;;;1.25;;
19189;SDS011;9727;50.200;19.038;2022-08-11T14:21:16;4.70;;;1.50;;
19189;SDS011;9727;50.200;19.038;2022-08-11T14:24:01;3.10;;;1.50;;
19189;SDS011;9727;50.200;19.038;2022-08-11T14:26:28;5.30;;;1.60;;
19189;SDS011;9727;50.200;19.038;2022-08-11T14:29:04;10.23;;;1.83;;
19189;SDS011;9727;50.200;19.038;2022-08-11T14:31:32;5.53;;;2.17;;
19189;SDS011;9727;50.200;19.038;2022-08-11T14:34:03;8.73;;;2.10;;
19189;SDS011;9727;50.200;19.038;2022-08-11T14:36:32;4.97;;;1.70;;
19189;SDS011;9727;50.200;19.038;2022-08-11T14:39:01;3.50;;;1.67;;
19189;SDS011;9727;50.200;19.038;2022-08-11T14:41:28;6.70;;;2.33;;
19189;SDS011;9727;50.200;19.038;2022-08-11T14:44:13;5.80;;;2.03;;
19189;SDS011;9727;50.200;19.038;2022-08-11T14:46:57;5.70;;;1.50;;
19189;SDS011;9727;50.200;19.038;2022-08-11T14:49:30;7.22;;;1.77;;
19189;SDS011;9727;50.200;19.038;2022-08-11T14:52:03;3.35;;;1.45;;
19189;SDS011;9727;50.200;19.038;2022-08-11T14:54:31;6.03;;;4.53;;
19189;SDS011;9727;50.200;19.038;2022-08-11T14:57:16;2.80;;;1.70;;
19189;SDS011;9727;50.200;19.038;2022-08-11T14:59:43;4.80;;;3.05;;
19189;SDS011;9727;50.200;19.038;2022-08-11T15:02:10;3.72;;;2.33;;
19189;SDS011;9727;50.200;19.038;2022-08-11T15:04:54;3.13;;;1.98;;
19189;SDS011;9727;50.200;19.038;2022-08-11T15:07:22;3.45;;;2.15;;
19189;SDS011;9727;50.200;19.038;2022-08-11T15:09:53;3.38;;;1.42;;
19189;SDS011;9727;50.200;19.038;2022-08-11T15:12:20;3.08;;;1.60;;
19189;SDS011;9727;50.200;19.038;2022-08-11T15:14:47;3.22;;;1.60;;
19189;SDS011;9727;50.200;19.038;2022-08-11T15:17:32;8.32;;;5.18;;
19189;SDS011;9727;50.200;19.038;2022-08-11T15:20:02;3.88;;;2.35;;
19189;SDS011;9727;50.200;19.038;2022-08-11T15:22:47;2.88;;;2.10;;
19189;SDS011;9727;50.200;19.038;2022-08-11T15:25:32;2.67;;;1.60;;
19189;SDS011;9727;50.200;19.038;2022-08-11T15:28:00;3.10;;;1.40;;
19189;SDS011;9727;50.200;19.038;2022-08-11T15:30:44;3.13;;;1.30;;
19189;SDS011;9727;50.200;19.038;2022-08-11T15:33:30;2.90;;;1.48;;
19189;SDS011;9727;50.200;19.038;2022-08-11T15:36:14;3.47;;;1.20;;
19189;SDS011;9727;50.200;19.038;2022-08-11T15:39:01;2.45;;;1.02;;
19189;SDS011;9727;50.200;19.038;2022-08-11T15:41:30;1.98;;;1.10;;
19189;SDS011;9727;50.200;19.038;2022-08-11T15:44:17;1.77;;;1.00;;
19189;SDS011;9727;50.200;19.038;2022-08-11T15:47:02;3.20;;;1.35;;
19189;SDS011;9727;50.200;19.038;2022-08-11T15:49:30;2.75;;;1.23;;
19189;SDS011;9727;50.200;19.038;2022-08-11T15:51:59;1.73;;;1.25;;
19189;SDS011;9727;50.200;19.038;2022-08-11T15:54:29;4.68;;;1.20;;
19189;SDS011;9727;50.200;19.038;2022-08-11T15:56:57;2.88;;;1.13;;
19189;SDS011;9727;50.200;19.038;2022-08-11T15:59:27;1.95;;;0.90;;
19189;SDS011;9727;50.200;19.038;2022-08-11T16:02:14;2.17;;;1.20;;
19189;SDS011;9727;50.200;19.038;2022-08-11T16:04:58;1.20;;;0.88;;
19189;SDS011;9727;50.200;19.038;2022-08-11T16:07:27;2.35;;;1.10;;
19189;SDS011;9727;50.200;19.038;2022-08-11T16:09:56;1.38;;;1.00;;
19189;SDS011;9727;50.200;19.038;2022-08-11T16:12:28;1.88;;;0.93;;
19189;SDS011;9727;50.200;19.038;2022-08-11T16:14:59;1.77;;;1.00;;
19189;SDS011;9727;50.200;19.038;2022-08-11T16:17:44;2.97;;;1.00;;
19189;SDS011;9727;50.200;19.038;2022-08-11T16:20:12;1.80;;;1.20;;
19189;SDS011;9727;50.200;19.038;2022-08-11T16:22:39;4.25;;;1.33;;
19189;SDS011;9727;50.200;19.038;2022-08-11T16:25:10;2.45;;;1.30;;
19189;SDS011;9727;50.200;19.038;2022-08-11T16:27:39;5.80;;;1.42;;
19189;SDS011;9727;50.200;19.038;2022-08-11T16:30:07;3.78;;;1.35;;
19189;SDS011;9727;50.200;19.038;2022-08-11T16:32:34;5.03;;;1.48;;
19189;SDS011;9727;50.200;19.038;2022-08-11T16:35:03;2.33;;;1.40;;